Time;durP1;ratioP1;P1;durP2;ratioP2;P2;SDS_P1;SDS_P2;PMS_P1;PMS_P2;Temp;Humidity;BMP_temperature;BMP_pressure;BME280_temperature;BME280_humidity;BME280_pressure;Samples;Min_cycle;Max_cycle;Signal;HPM_P1;HPM_P2
2022/03/30 00:00:00;;;;;;;;;;;;;;;;;;344596;28;948;-78
2022/03/30 00:00:11;;;;;;;;;;;;;;;;;;344651;28;890;-78
2022/03/30 00:00:22;;;;;;;;;;;;;;;;;;344626;28;885;-78
2022/03/30 00:00:32;;;;;;;;;;;;;;;;;;344310;28;1565;-78
2022/03/30 00:00:43;;;;;;;;;;;;;;;;;;344661;28;846;-78
2022/03/30 00:00:53;;;;;;;;;;;;;;;;;;344586;28;992;-78
2022/03/30 00:01:03;;;;;;;;;;;;;;;;;;344552;28;994;-78
2022/03/30 00:01:14;;;;;;;;;;;;;;;;;;344549;28;907;-78
2022/03/30 00:01:24;;;;;;;;;;;;;;;;;;344560;28;886;-78
2022/03/30 00:01:35;;;;;;;;;;;;;;;;;;344601;28;945;-78
2022/03/30 00:01:45;;;;;;;;;;;;;;;;;;344651;28;834;-78
2022/03/30 00:01:55;;;;;;;;;;;;;;;;;;344568;28;890;-78
2022/03/30 00:02:08;;;;;;;;;;;;;;;;;;344554;28;990;-78
2022/03/30 00:02:18;;;;;;;;;;;;;;;;;;344633;28;866;-78
2022/03/30 00:02:28;;;;;;;;;;;;;;;;;;344498;28;1454;-78
2022/03/30 00:02:39;;;;;;;;;;;;;;;;;;344455;28;1625;-78
2022/03/30 00:02:49;;;;;;;;;;;;;;;;;;344661;28;863;-78
2022/03/30 00:03:00;;;;;;;;;;;;;;;;;;344654;28;945;-78
2022/03/30 00:03:10;;;;;;;;;;;;;;;;;;344620;28;882;-78
2022/03/30 00:03:21;;;;;;;;;;;;;;;;;;344603;28;917;-78
2022/03/30 00:03:31;;;;;;;;;;;;;;;;;;344623;28;855;-78
2022/03/30 00:03:41;;;;;;;;;;;;;;;;;;344542;28;969;-78
2022/03/30 00:03:52;;;;;;;;;;;;;;;;;;344681;28;877;-78
2022/03/30 00:04:02;;;;;;;;;;;;;;;;;;344601;28;879;-78
2022/03/30 00:04:12;;;;;;;;;;;;;;;;;;344643;28;875;-78
2022/03/30 00:04:23;;;;;;;;;;;;;;;;;;344650;28;890;-78
2022/03/30 00:04:39;;;;;;;;;;;;;;;;;;344354;28;1420;-78
2022/03/30 00:04:50;;;;;;;;;;;;;;;;;;344507;28;1554;-78
2022/03/30 00:05:00;;;;;;;;;;;;;;;;;;344623;28;898;-78
2022/03/30 00:05:10;;;;;;;;;;;;;;;;;;344622;28;873;-78
2022/03/30 00:05:21;;;;;;;;;;;;;;;;;;344645;28;854;-77
2022/03/30 00:05:31;;;;;;;;;;;;;;;;;;344615;28;905;-78
2022/03/30 00:05:42;;;;;;;;;;;;;;;;;;344536;28;914;-78
2022/03/30 00:05:52;;;;;;;;;;;;;;;;;;344637;28;915;-78
2022/03/30 00:06:06;;;;;;;;;;;;;;;;;;344611;28;876;-78
2022/03/30 00:06:16;;;;;;;;;;;;;;;;;;344629;28;839;-78
2022/03/30 00:06:26;;;;;;;;;;;;;;;;;;344649;28;853;-78
2022/03/30 00:06:37;;;;;;;;;;;;;;;;;;344249;28;1570;-77
2022/03/30 00:06:47;;;;;;;;;;;;;;;;;;344540;28;1518;-78
2022/03/30 00:06:58;;;;;;;;;;;;;;;;;;344592;28;881;-78
2022/03/30 00:07:08;;;;;;;;;;;;;;;;;;344597;28;847;-78
2022/03/30 00:07:18;;;;;;;;;;;;;;;;;;344614;28;867;-78
2022/03/30 00:07:31;;;;;;;;;;;;;;;;;;344570;28;861;-78
2022/03/30 00:07:54;;;;;;;;;;;;;;;;;;344538;28;831;-78
2022/03/30 00:08:05;;;;;;;;;;;;;;;;;;344611;28;923;-78
2022/03/30 00:08:15;;;;;;;;;;;;;;;;;;344620;28;904;-78
2022/03/30 00:08:26;;;;;;;;;;;;;;;;;;344574;28;878;-78
2022/03/30 00:08:36;;;;;;;;;;;;;;;;;;344360;28;1549;-78
2022/03/30 00:08:47;;;;;;;;;;;;;;;;;;344576;28;935;-78
2022/03/30 00:08:57;;;;;;;;;;;;;;;;;;344635;28;890;-78
2022/03/30 00:09:07;;;;;;;;;;;;;;;;;;344667;28;825;-78
2022/03/30 00:09:18;;;;;;;;;;;;;;;;;;344597;28;859;-78
2022/03/30 00:09:28;;;;;;;;;;;;;;;;;;344641;28;806;-78
2022/03/30 00:09:38;;;;;;;;;;;;;;;;;;344625;28;878;-78
2022/03/30 00:09:49;;;;;;;;;;;;;;;;;;344645;28;826;-78
2022/03/30 00:09:59;;;;;;;;;;;;;;;;;;344545;28;827;-78
2022/03/30 00:10:10;;;;;;;;;;;;;;;;;;344609;28;878;-78
2022/03/30 00:10:20;;;;;;;;;;;;;;;;;;344652;28;861;-78
2022/03/30 00:10:31;;;;;;;;;;;;;;;;;;344607;28;913;-78
2022/03/30 00:10:41;;;;;;;;;;;;;;;;;;344563;28;879;-78
2022/03/30 00:10:52;;;;;;;;;;;;;;;;;;344564;28;940;-78
2022/03/30 00:11:02;;;;;;;;;;;;;;;;;;344561;28;921;-78
2022/03/30 00:11:13;;;;;;;;;;;;;;;;;;344634;28;886;-78
2022/03/30 00:11:23;;;;;;;;;;;;;;;;;;344668;28;906;-78
2022/03/30 00:11:33;;;;;;;;;;;;;;;;;;344642;28;851;-78
2022/03/30 00:11:44;;;;;;;;;;;;;;;;;;344636;28;910;-78
2022/03/30 00:11:56;;;;;;;;;;;;;;;;;;344427;28;1565;-78
2022/03/30 00:12:06;;;;;;;;;;;;;;;;;;344032;28;1450;-77
2022/03/30 00:12:17;;;;;;;;;;;;;;;;;;343290;28;821;-78
2022/03/30 00:12:28;;;;;;;;;;;;;;;;;;343217;28;1959;-78
2022/03/30 00:12:38;;;;;;;;;;;;;;;;;;343278;28;838;-78
2022/03/30 00:12:56;;;;;;;;;;;;;;;;;;344211;28;1419;-78
2022/03/30 00:13:08;;;;;;;;;;;;;;;;;;344335;28;1747;-78
2022/03/30 00:13:18;;;;;;;;;;;;;;;;;;344421;28;1850;-78
2022/03/30 00:13:29;;;;;;;;;;;;;;;;;;344439;28;1830;-78
2022/03/30 00:13:40;;;;;;;;;;;;;;;;;;344564;28;980;-78
2022/03/30 00:13:50;;;;;;;;;;;;;;;;;;344481;28;1009;-78
2022/03/30 00:14:00;;;;;;;;;;;;;;;;;;344357;28;1514;-77
2022/03/30 00:14:11;;;;;;;;;;;;;;;;;;344550;28;862;-78
2022/03/30 00:14:22;;;;;;;;;;;;;;;;;;344602;28;953;-78
2022/03/30 00:14:32;;;;;;;;;;;;;;;;;;344579;28;941;-78
2022/03/30 00:14:42;;;;;;;;;;;;;;;;;;344626;28;883;-78
2022/03/30 00:14:53;;;;;;;;;;;;;;;;;;344603;28;945;-78
2022/03/30 00:15:03;;;;;;;;;;;;;;;;;;344636;28;897;-77
2022/03/30 00:15:14;;;;;;;;;;;;;;;;;;344617;28;839;-77
2022/03/30 00:15:25;;;;;;;;;;;;;;;;;;344549;28;856;-77
2022/03/30 00:15:42;;;;;;;;;;;;;;;;;;344623;28;854;-78
2022/03/30 00:15:52;;;;;;;;;;;;;;;;;;344650;28;859;-78
2022/03/30 00:16:04;;;;;;;;;;;;;;;;;;344600;28;927;-78
2022/03/30 00:16:14;;;;;;;;;;;;;;;;;;344513;28;858;-78
2022/03/30 00:16:24;;;;;;;;;;;;;;;;;;344597;28;835;-78
2022/03/30 00:16:35;;;;;;;;;;;;;;;;;;344552;28;995;-78
2022/03/30 00:16:45;;;;;;;;;;;;;;;;;;344629;28;941;-77
2022/03/30 00:16:55;;;;;;;;;;;;;;;;;;344429;28;1580;-78
2022/03/30 00:17:06;;;;;;;;;;;;;;;;;;344475;28;1475;-78
2022/03/30 00:17:17;;;;;;;;;;;;;;;;;;344612;28;933;-78
2022/03/30 00:17:27;;;;;;;;;;;;;;;;;;344528;28;1036;-78
2022/03/30 00:17:38;;;;;;;;;;;;;;;;;;344386;28;1841;-77
2022/03/30 00:17:48;;;;;;;;;;;;;;;;;;344633;28;854;-78
2022/03/30 00:17:58;;;;;;;;;;;;;;;;;;344529;28;914;-78
2022/03/30 00:18:09;;;;;;;;;;;;;;;;;;344571;28;981;-78
2022/03/30 00:18:19;;;;;;;;;;;;;;;;;;344568;28;858;-78
2022/03/30 00:18:30;;;;;;;;;;;;;;;;;;344575;28;881;-78
2022/03/30 00:18:40;;;;;;;;;;;;;;;;;;344616;28;921;-78
2022/03/30 00:18:50;;;;;;;;;;;;;;;;;;344509;28;1057;-78
2022/03/30 00:19:02;;;;;;;;;;;;;;;;;;344600;28;1151;-78
2022/03/30 00:19:12;;;;;;;;;;;;;;;;;;344626;28;917;-78
2022/03/30 00:19:23;;;;;;;;;;;;;;;;;;344602;28;802;-78
2022/03/30 00:19:33;;;;;;;;;;;;;;;;;;344522;28;1056;-78
2022/03/30 00:19:44;;;;;;;;;;;;;;;;;;344577;28;1009;-78
2022/03/30 00:19:56;;;;;;;;;;;;;;;;;;344560;28;1016;-78
2022/03/30 00:20:07;;;;;;;;;;;;;;;;;;344459;28;1861;-78
2022/03/30 00:20:18;;;;;;;;;;;;;;;;;;344550;28;929;-78
2022/03/30 00:20:28;;;;;;;;;;;;;;;;;;344592;28;803;-78
2022/03/30 00:20:39;;;;;;;;;;;;;;;;;;344528;28;849;-78
2022/03/30 00:20:55;;;;;;;;;;;;;;;;;;344576;28;1228;-78
2022/03/30 00:21:06;;;;;;;;;;;;;;;;;;344560;28;946;-78
2022/03/30 00:21:16;;;;;;;;;;;;;;;;;;344638;28;810;-78
2022/03/30 00:21:27;;;;;;;;;;;;;;;;;;344556;28;930;-78
2022/03/30 00:21:37;;;;;;;;;;;;;;;;;;344321;28;1620;-78
2022/03/30 00:21:47;;;;;;;;;;;;;;;;;;344386;28;1348;-78
2022/03/30 00:21:58;;;;;;;;;;;;;;;;;;344620;28;800;-78
2022/03/30 00:22:09;;;;;;;;;;;;;;;;;;344573;28;1029;-78
2022/03/30 00:22:19;;;;;;;;;;;;;;;;;;344593;28;922;-78
2022/03/30 00:22:30;;;;;;;;;;;;;;;;;;344481;28;941;-78
2022/03/30 00:22:40;;;;;;;;;;;;;;;;;;344559;28;859;-78
2022/03/30 00:22:50;;;;;;;;;;;;;;;;;;344575;28;1295;-78
2022/03/30 00:23:01;;;;;;;;;;;;;;;;;;344626;28;866;-78
2022/03/30 00:23:12;;;;;;;;;;;;;;;;;;344595;28;1048;-78
2022/03/30 00:23:22;;;;;;;;;;;;;;;;;;344570;28;848;-78
2022/03/30 00:23:33;;;;;;;;;;;;;;;;;;344431;28;1637;-78
2022/03/30 00:23:43;;;;;;;;;;;;;;;;;;344491;28;1577;-78
2022/03/30 00:23:53;;;;;;;;;;;;;;;;;;344404;28;1027;-78
2022/03/30 00:24:04;;;;;;;;;;;;;;;;;;344615;28;843;-78
2022/03/30 00:24:14;;;;;;;;;;;;;;;;;;344523;28;904;-78
2022/03/30 00:24:28;;;;;;;;;;;;;;;;;;344626;28;869;-78
2022/03/30 00:24:44;;;;;;;;;;;;;;;;;;345697;28;1271;-78
2022/03/30 00:24:54;;;;;;;;;;;;;;;;;;345736;28;886;-78
2022/03/30 00:25:06;;;;;;;;;;;;;;;;;;345780;28;909;-78
2022/03/30 00:25:16;;;;;;;;;;;;;;;;;;345945;28;931;-78
2022/03/30 00:25:26;;;;;;;;;;;;;;;;;;345866;28;921;-78
2022/03/30 00:25:37;;;;;;;;;;;;;;;;;;345913;28;806;-78
2022/03/30 00:25:47;;;;;;;;;;;;;;;;;;345963;28;858;-78
2022/03/30 00:26:04;;;;;;;;;;;;;;;;;;345888;28;862;-78
2022/03/30 00:26:14;;;;;;;;;;;;;;;;;;345960;28;882;-78
2022/03/30 00:26:25;;;;;;;;;;;;;;;;;;345957;28;836;-78
2022/03/30 00:26:35;;;;;;;;;;;;;;;;;;345779;28;993;-78
2022/03/30 00:26:45;;;;;;;;;;;;;;;;;;345957;28;897;-78
2022/03/30 00:26:56;;;;;;;;;;;;;;;;;;344618;28;1549;-78
2022/03/30 00:27:06;;;;;;;;;;;;;;;;;;344573;28;846;-78
2022/03/30 00:27:16;;;;;;;;;;;;;;;;;;344486;28;1309;-78
2022/03/30 00:27:27;;;;;;;;;;;;;;;;;;344441;28;1306;-78
2022/03/30 00:27:38;;;;;;;;;;;;;;;;;;344330;28;1028;-78
2022/03/30 00:27:48;;;;;;;;;;;;;;;;;;344581;28;984;-78
2022/03/30 00:27:59;;;;;;;;;;;;;;;;;;344563;28;880;-78
2022/03/30 00:28:09;;;;;;;;;;;;;;;;;;344607;28;897;-78
2022/03/30 00:28:20;;;;;;;;;;;;;;;;;;344592;28;866;-78
2022/03/30 00:28:30;;;;;;;;;;;;;;;;;;344538;28;857;-78
2022/03/30 00:28:41;;;;;;;;;;;;;;;;;;344552;28;854;-78
2022/03/30 00:28:51;;;;;;;;;;;;;;;;;;344577;28;825;-78
2022/03/30 00:29:03;;;;;;;;;;;;;;;;;;344479;28;935;-78
2022/03/30 00:29:13;;;;;;;;;;;;;;;;;;344329;28;1577;-78
2022/03/30 00:29:24;;;;;;;;;;;;;;;;;;344472;28;1566;-78
2022/03/30 00:29:34;;;;;;;;;;;;;;;;;;344426;28;1589;-78
2022/03/30 00:29:45;;;;;;;;;;;;;;;;;;344482;28;1503;-78
2022/03/30 00:29:55;;;;;;;;;;;;;;;;;;344563;28;792;-78
2022/03/30 00:30:06;;;;;;;;;;;;;;;;;;343022;28;1024;-78
2022/03/30 00:30:17;;;;;;;;;;;;;;;;;;343284;28;889;-78
2022/03/30 00:30:28;;;;;;;;;;;;;;;;;;343205;28;850;-78
2022/03/30 00:30:38;;;;;;;;;;;;;;;;;;343297;28;895;-78
2022/03/30 00:30:48;;;;;;;;;;;;;;;;;;343223;28;871;-78
2022/03/30 00:30:59;;;;;;;;;;;;;;;;;;343260;28;841;-78
2022/03/30 00:31:18;;;;;;;;;;;;;;;;;;343271;28;860;-78
2022/03/30 00:31:28;;;;;;;;;;;;;;;;;;343275;28;800;-78
2022/03/30 00:31:38;;;;;;;;;;;;;;;;;;343239;28;850;-78
2022/03/30 00:31:49;;;;;;;;;;;;;;;;;;343185;28;1648;-78
2022/03/30 00:31:59;;;;;;;;;;;;;;;;;;344503;28;1518;-78
2022/03/30 00:32:10;;;;;;;;;;;;;;;;;;344635;28;920;-78
2022/03/30 00:32:20;;;;;;;;;;;;;;;;;;344616;28;810;-78
2022/03/30 00:32:31;;;;;;;;;;;;;;;;;;344511;28;1886;-78
2022/03/30 00:32:41;;;;;;;;;;;;;;;;;;344605;28;1051;-78
2022/03/30 00:32:52;;;;;;;;;;;;;;;;;;344557;28;929;-78
2022/03/30 00:33:02;;;;;;;;;;;;;;;;;;344611;28;812;-78
2022/03/30 00:33:12;;;;;;;;;;;;;;;;;;344391;28;1161;-78
2022/03/30 00:33:23;;;;;;;;;;;;;;;;;;344645;28;918;-78
2022/03/30 00:33:33;;;;;;;;;;;;;;;;;;344599;28;893;-78
2022/03/30 00:33:44;;;;;;;;;;;;;;;;;;344605;28;834;-78
2022/03/30 00:33:54;;;;;;;;;;;;;;;;;;344310;28;1676;-78
2022/03/30 00:34:04;;;;;;;;;;;;;;;;;;344501;28;1585;-78
2022/03/30 00:34:14;;;;;;;;;;;;;;;;;;344369;28;1561;-78
2022/03/30 00:34:25;;;;;;;;;;;;;;;;;;344656;28;964;-78
2022/03/30 00:34:35;;;;;;;;;;;;;;;;;;344607;28;878;-78
2022/03/30 00:34:45;;;;;;;;;;;;;;;;;;344657;28;948;-78
2022/03/30 00:34:55;;;;;;;;;;;;;;;;;;344406;28;1704;-78
2022/03/30 00:35:07;;;;;;;;;;;;;;;;;;344598;28;950;-78
2022/03/30 00:35:18;;;;;;;;;;;;;;;;;;344558;28;929;-78
2022/03/30 00:35:28;;;;;;;;;;;;;;;;;;344619;28;949;-78
2022/03/30 00:35:38;;;;;;;;;;;;;;;;;;344629;28;989;-78
2022/03/30 00:35:48;;;;;;;;;;;;;;;;;;344503;28;866;-78
2022/03/30 00:35:59;;;;;;;;;;;;;;;;;;344406;28;1320;-78
2022/03/30 00:36:09;;;;;;;;;;;;;;;;;;344303;28;1522;-78
2022/03/30 00:36:26;;;;;;;;;;;;;;;;;;344638;28;889;-78
2022/03/30 00:36:36;;;;;;;;;;;;;;;;;;344627;28;941;-78
2022/03/30 00:36:46;;;;;;;;;;;;;;;;;;344412;28;1229;-78
2022/03/30 00:36:57;;;;;;;;;;;;;;;;;;344371;28;1127;-78
2022/03/30 00:37:07;;;;;;;;;;;;;;;;;;344602;28;957;-78
2022/03/30 00:37:18;;;;;;;;;;;;;;;;;;344420;28;1017;-78
2022/03/30 00:37:28;;;;;;;;;;;;;;;;;;344655;28;791;-78
2022/03/30 00:37:38;;;;;;;;;;;;;;;;;;344599;28;973;-78
2022/03/30 00:37:49;;;;;;;;;;;;;;;;;;344620;28;855;-78
2022/03/30 00:37:59;;;;;;;;;;;;;;;;;;344317;28;1546;-78
2022/03/30 00:38:09;;;;;;;;;;;;;;;;;;344615;28;1020;-78
2022/03/30 00:38:20;;;;;;;;;;;;;;;;;;344629;28;1000;-78
2022/03/30 00:38:30;;;;;;;;;;;;;;;;;;344578;28;925;-78
2022/03/30 00:38:40;;;;;;;;;;;;;;;;;;344656;28;786;-78
2022/03/30 00:38:50;;;;;;;;;;;;;;;;;;344373;28;1608;-78
2022/03/30 00:39:01;;;;;;;;;;;;;;;;;;344602;28;920;-78
2022/03/30 00:39:11;;;;;;;;;;;;;;;;;;344545;28;921;-78
2022/03/30 00:39:21;;;;;;;;;;;;;;;;;;344609;28;976;-78
2022/03/30 00:39:32;;;;;;;;;;;;;;;;;;344562;28;993;-78
2022/03/30 00:39:42;;;;;;;;;;;;;;;;;;344641;28;862;-78
2022/03/30 00:39:53;;;;;;;;;;;;;;;;;;344577;28;965;-78
2022/03/30 00:40:05;;;;;;;;;;;;;;;;;;344555;28;970;-78
2022/03/30 00:40:16;;;;;;;;;;;;;;;;;;344608;28;920;-78
2022/03/30 00:40:27;;;;;;;;;;;;;;;;;;344422;28;1024;-78
2022/03/30 00:40:37;;;;;;;;;;;;;;;;;;344635;28;846;-78
2022/03/30 00:40:48;;;;;;;;;;;;;;;;;;344291;28;1542;-78
2022/03/30 00:41:00;;;;;;;;;;;;;;;;;;344587;28;802;-78
2022/03/30 00:41:10;;;;;;;;;;;;;;;;;;344508;28;1076;-78
2022/03/30 00:41:20;;;;;;;;;;;;;;;;;;344388;28;1125;-78
2022/03/30 00:41:38;;;;;;;;;;;;;;;;;;344640;28;936;-78
2022/03/30 00:41:48;;;;;;;;;;;;;;;;;;344624;28;945;-78
2022/03/30 00:41:59;;;;;;;;;;;;;;;;;;344320;28;1901;-78
2022/03/30 00:42:19;;;;;;;;;;;;;;;;;;344654;28;905;-78
2022/03/30 00:42:29;;;;;;;;;;;;;;;;;;344551;28;815;-78
2022/03/30 00:42:40;;;;;;;;;;;;;;;;;;344620;28;913;-78
2022/03/30 00:42:50;;;;;;;;;;;;;;;;;;344579;28;968;-78
2022/03/30 00:43:01;;;;;;;;;;;;;;;;;;344379;28;1432;-78
2022/03/30 00:43:12;;;;;;;;;;;;;;;;;;344574;28;1035;-78
2022/03/30 00:43:22;;;;;;;;;;;;;;;;;;344571;28;961;-78
2022/03/30 00:43:34;;;;;;;;;;;;;;;;;;344605;28;929;-78
2022/03/30 00:43:44;;;;;;;;;;;;;;;;;;344634;28;964;-78
2022/03/30 00:43:54;;;;;;;;;;;;;;;;;;344528;28;846;-78
2022/03/30 00:44:12;;;;;;;;;;;;;;;;;;344648;28;972;-78
2022/03/30 00:44:29;;;;;;;;;;;;;;;;;;344654;28;889;-78
2022/03/30 00:44:39;;;;;;;;;;;;;;;;;;344662;28;862;-78
2022/03/30 00:44:50;;;;;;;;;;;;;;;;;;344549;28;918;-78
2022/03/30 00:45:17;;;;;;;;;;;;;;;;;;344609;28;782;-78
2022/03/30 00:45:27;;;;;;;;;;;;;;;;;;344432;28;1542;-78
2022/03/30 00:45:38;;;;;;;;;;;;;;;;;;344587;28;914;-78
2022/03/30 00:45:48;;;;;;;;;;;;;;;;;;344598;28;937;-78
2022/03/30 00:45:58;;;;;;;;;;;;;;;;;;344560;28;725;-78
2022/03/30 00:46:12;;;;;;;;;;;;;;;;;;344465;28;1009;-78
2022/03/30 00:46:22;;;;;;;;;;;;;;;;;;344688;28;874;-78
2022/03/30 00:46:32;;;;;;;;;;;;;;;;;;344578;28;933;-78
2022/03/30 00:46:43;;;;;;;;;;;;;;;;;;344650;28;821;-78
2022/03/30 00:46:53;;;;;;;;;;;;;;;;;;344367;28;1806;-77
2022/03/30 00:47:10;;;;;;;;;;;;;;;;;;344534;28;1786;-78
2022/03/30 00:47:25;;;;;;;;;;;;;;;;;;344307;28;1565;-78
2022/03/30 00:47:36;;;;;;;;;;;;;;;;;;344591;28;1019;-78
2022/03/30 00:47:47;;;;;;;;;;;;;;;;;;344612;28;862;-78
2022/03/30 00:47:57;;;;;;;;;;;;;;;;;;344545;28;986;-78
2022/03/30 00:48:08;;;;;;;;;;;;;;;;;;344602;28;1033;-78
2022/03/30 00:48:18;;;;;;;;;;;;;;;;;;344576;28;873;-78
2022/03/30 00:48:28;;;;;;;;;;;;;;;;;;344584;28;1017;-78
2022/03/30 00:48:40;;;;;;;;;;;;;;;;;;344577;28;917;-78
2022/03/30 00:48:50;;;;;;;;;;;;;;;;;;344627;28;991;-78
2022/03/30 00:49:01;;;;;;;;;;;;;;;;;;344565;28;808;-78
2022/03/30 00:49:11;;;;;;;;;;;;;;;;;;344581;28;909;-78
2022/03/30 00:49:22;;;;;;;;;;;;;;;;;;344350;28;1510;-77
2022/03/30 00:49:38;;;;;;;;;;;;;;;;;;344511;28;1498;-78
2022/03/30 00:49:48;;;;;;;;;;;;;;;;;;344649;28;941;-78
2022/03/30 00:49:59;;;;;;;;;;;;;;;;;;344535;28;1525;-78
2022/03/30 00:50:10;;;;;;;;;;;;;;;;;;344529;28;948;-78
2022/03/30 00:50:21;;;;;;;;;;;;;;;;;;344393;28;1006;-78
2022/03/30 00:50:31;;;;;;;;;;;;;;;;;;344598;28;1001;-78
2022/03/30 00:50:48;;;;;;;;;;;;;;;;;;344595;28;829;-78
2022/03/30 00:50:58;;;;;;;;;;;;;;;;;;344639;28;788;-78
2022/03/30 00:51:08;;;;;;;;;;;;;;;;;;344560;28;941;-78
2022/03/30 00:51:19;;;;;;;;;;;;;;;;;;344646;28;842;-78
2022/03/30 00:51:29;;;;;;;;;;;;;;;;;;344604;28;903;-78
2022/03/30 00:51:39;;;;;;;;;;;;;;;;;;344529;28;941;-78
2022/03/30 00:51:49;;;;;;;;;;;;;;;;;;344308;28;1562;-78
2022/03/30 00:52:00;;;;;;;;;;;;;;;;;;344569;28;1519;-78
2022/03/30 00:52:10;;;;;;;;;;;;;;;;;;344563;28;861;-78
2022/03/30 00:52:21;;;;;;;;;;;;;;;;;;344607;28;984;-78
2022/03/30 00:52:31;;;;;;;;;;;;;;;;;;344481;28;1902;-78
2022/03/30 00:52:42;;;;;;;;;;;;;;;;;;343084;28;953;-78
2022/03/30 00:52:56;;;;;;;;;;;;;;;;;;343181;28;965;-78
2022/03/30 00:53:07;;;;;;;;;;;;;;;;;;343094;28;945;-78
2022/03/30 00:53:17;;;;;;;;;;;;;;;;;;343128;28;1026;-78
2022/03/30 00:53:27;;;;;;;;;;;;;;;;;;343150;28;969;-78
2022/03/30 00:53:38;;;;;;;;;;;;;;;;;;343073;28;933;-77
2022/03/30 00:53:48;;;;;;;;;;;;;;;;;;343148;28;990;-78
2022/03/30 00:54:12;;;;;;;;;;;;;;;;;;342780;28;1541;-78
2022/03/30 00:54:29;;;;;;;;;;;;;;;;;;343204;28;949;-78
2022/03/30 00:54:40;;;;;;;;;;;;;;;;;;343780;28;1632;-78
2022/03/30 00:54:51;;;;;;;;;;;;;;;;;;344492;28;985;-78
2022/03/30 00:55:03;;;;;;;;;;;;;;;;;;344476;28;1005;-78
2022/03/30 00:55:16;;;;;;;;;;;;;;;;;;344573;28;893;-78
2022/03/30 00:55:26;;;;;;;;;;;;;;;;;;344605;28;953;-78
2022/03/30 00:55:37;;;;;;;;;;;;;;;;;;344580;28;862;-78
2022/03/30 00:55:47;;;;;;;;;;;;;;;;;;344494;28;1021;-78
2022/03/30 00:56:05;;;;;;;;;;;;;;;;;;344614;28;822;-78
2022/03/30 00:56:15;;;;;;;;;;;;;;;;;;344662;28;811;-78
2022/03/30 00:56:28;;;;;;;;;;;;;;;;;;344574;28;961;-78
2022/03/30 00:56:39;;;;;;;;;;;;;;;;;;344670;28;825;-78
2022/03/30 00:56:50;;;;;;;;;;;;;;;;;;344443;28;1581;-78
2022/03/30 00:57:00;;;;;;;;;;;;;;;;;;344359;28;1562;-78
2022/03/30 00:57:12;;;;;;;;;;;;;;;;;;344267;28;1455;-78
2022/03/30 00:57:23;;;;;;;;;;;;;;;;;;344551;28;859;-78
2022/03/30 00:57:35;;;;;;;;;;;;;;;;;;344592;28;1025;-78
2022/03/30 00:57:46;;;;;;;;;;;;;;;;;;344608;28;973;-78
2022/03/30 00:57:57;;;;;;;;;;;;;;;;;;344583;28;807;-78
2022/03/30 00:58:08;;;;;;;;;;;;;;;;;;344625;28;889;-78
2022/03/30 00:58:20;;;;;;;;;;;;;;;;;;344535;28;857;-78
2022/03/30 00:58:30;;;;;;;;;;;;;;;;;;344623;28;838;-78
2022/03/30 00:58:41;;;;;;;;;;;;;;;;;;344558;28;962;-78
2022/03/30 00:58:52;;;;;;;;;;;;;;;;;;344590;28;836;-77
2022/03/30 00:59:07;;;;;;;;;;;;;;;;;;344613;28;867;-78
2022/03/30 00:59:17;;;;;;;;;;;;;;;;;;344018;28;1803;-78
2022/03/30 00:59:27;;;;;;;;;;;;;;;;;;344340;28;1865;-78
2022/03/30 00:59:38;;;;;;;;;;;;;;;;;;344597;28;996;-78
2022/03/30 00:59:49;;;;;;;;;;;;;;;;;;344592;28;1024;-78
2022/03/30 00:59:59;;;;;;;;;;;;;;;;;;344377;28;1006;-78
2022/03/30 01:00:12;;;;;;;;;;;;;;;;;;344549;28;952;-78
2022/03/30 01:00:22;;;;;;;;;;;;;;;;;;344615;28;862;-78
2022/03/30 01:00:33;;;;;;;;;;;;;;;;;;344582;28;803;-78
2022/03/30 01:00:50;;;;;;;;;;;;;;;;;;344635;28;870;-78
2022/03/30 01:01:00;;;;;;;;;;;;;;;;;;344582;28;814;-78
2022/03/30 01:01:11;;;;;;;;;;;;;;;;;;344644;28;783;-78
2022/03/30 01:01:22;;;;;;;;;;;;;;;;;;344587;28;775;-78
2022/03/30 01:01:33;;;;;;;;;;;;;;;;;;344578;28;933;-78
2022/03/30 01:01:44;;;;;;;;;;;;;;;;;;344562;28;1131;-78
2022/03/30 01:01:54;;;;;;;;;;;;;;;;;;344225;28;1525;-78
2022/03/30 01:02:04;;;;;;;;;;;;;;;;;;344516;28;1016;-78
2022/03/30 01:02:14;;;;;;;;;;;;;;;;;;344598;28;865;-78
2022/03/30 01:02:25;;;;;;;;;;;;;;;;;;344623;28;840;-78
2022/03/30 01:02:39;;;;;;;;;;;;;;;;;;344575;28;949;-78
2022/03/30 01:02:50;;;;;;;;;;;;;;;;;;344585;28;992;-78
2022/03/30 01:03:00;;;;;;;;;;;;;;;;;;344595;28;917;-78
2022/03/30 01:03:10;;;;;;;;;;;;;;;;;;344574;28;969;-78
2022/03/30 01:03:21;;;;;;;;;;;;;;;;;;344590;28;985;-78
2022/03/30 01:03:31;;;;;;;;;;;;;;;;;;344623;28;850;-78
2022/03/30 01:03:41;;;;;;;;;;;;;;;;;;344559;28;783;-78
2022/03/30 01:03:51;;;;;;;;;;;;;;;;;;344579;28;1040;-78
2022/03/30 01:04:03;;;;;;;;;;;;;;;;;;344355;28;1522;-78
2022/03/30 01:04:13;;;;;;;;;;;;;;;;;;344503;28;1538;-78
2022/03/30 01:04:25;;;;;;;;;;;;;;;;;;344519;28;933;-78
2022/03/30 01:04:35;;;;;;;;;;;;;;;;;;344575;28;875;-78
2022/03/30 01:04:46;;;;;;;;;;;;;;;;;;344580;28;973;-78
2022/03/30 01:04:57;;;;;;;;;;;;;;;;;;344607;28;925;-78
2022/03/30 01:05:07;;;;;;;;;;;;;;;;;;344446;28;1037;-78
2022/03/30 01:05:17;;;;;;;;;;;;;;;;;;344636;28;929;-78
2022/03/30 01:05:28;;;;;;;;;;;;;;;;;;344540;28;976;-78
2022/03/30 01:05:38;;;;;;;;;;;;;;;;;;344595;28;1019;-78
2022/03/30 01:05:48;;;;;;;;;;;;;;;;;;344443;28;1101;-78
2022/03/30 01:06:05;;;;;;;;;;;;;;;;;;344631;28;1000;-78
2022/03/30 01:06:16;;;;;;;;;;;;;;;;;;344543;28;822;-78
2022/03/30 01:06:26;;;;;;;;;;;;;;;;;;344564;28;1008;-78
2022/03/30 01:06:36;;;;;;;;;;;;;;;;;;344185;28;1629;-78
2022/03/30 01:06:47;;;;;;;;;;;;;;;;;;344634;28;906;-78
2022/03/30 01:06:57;;;;;;;;;;;;;;;;;;344537;28;925;-78
2022/03/30 01:07:07;;;;;;;;;;;;;;;;;;344576;28;843;-78
2022/03/30 01:07:18;;;;;;;;;;;;;;;;;;344620;28;890;-78
2022/03/30 01:07:28;;;;;;;;;;;;;;;;;;344601;28;862;-78
2022/03/30 01:07:39;;;;;;;;;;;;;;;;;;344442;28;1172;-78
2022/03/30 01:07:49;;;;;;;;;;;;;;;;;;344638;28;850;-78
2022/03/30 01:07:59;;;;;;;;;;;;;;;;;;344576;28;984;-78
2022/03/30 01:08:09;;;;;;;;;;;;;;;;;;344638;28;846;-78
2022/03/30 01:08:19;;;;;;;;;;;;;;;;;;344492;28;921;-78
2022/03/30 01:08:30;;;;;;;;;;;;;;;;;;344358;28;1534;-78
2022/03/30 01:08:40;;;;;;;;;;;;;;;;;;344538;28;1526;-78
2022/03/30 01:08:50;;;;;;;;;;;;;;;;;;344531;28;1514;-78
2022/03/30 01:09:01;;;;;;;;;;;;;;;;;;344567;28;934;-78
2022/03/30 01:09:11;;;;;;;;;;;;;;;;;;344318;28;1490;-78
2022/03/30 01:09:21;;;;;;;;;;;;;;;;;;344617;28;929;-78
2022/03/30 01:09:31;;;;;;;;;;;;;;;;;;344574;28;909;-78
2022/03/30 01:09:42;;;;;;;;;;;;;;;;;;344581;28;941;-78
2022/03/30 01:09:52;;;;;;;;;;;;;;;;;;344612;28;869;-78
2022/03/30 01:10:03;;;;;;;;;;;;;;;;;;344287;28;1490;-78
2022/03/30 01:10:15;;;;;;;;;;;;;;;;;;344495;28;1526;-78
2022/03/30 01:10:25;;;;;;;;;;;;;;;;;;344470;28;902;-78
2022/03/30 01:10:36;;;;;;;;;;;;;;;;;;344560;28;1005;-78
2022/03/30 01:10:47;;;;;;;;;;;;;;;;;;344561;28;949;-78
2022/03/30 01:10:59;;;;;;;;;;;;;;;;;;344585;28;937;-78
2022/03/30 01:11:16;;;;;;;;;;;;;;;;;;344608;28;992;-78
2022/03/30 01:11:28;;;;;;;;;;;;;;;;;;344597;28;830;-78
2022/03/30 01:11:38;;;;;;;;;;;;;;;;;;344580;28;1047;-78
2022/03/30 01:11:49;;;;;;;;;;;;;;;;;;344607;28;839;-78
2022/03/30 01:11:59;;;;;;;;;;;;;;;;;;344443;28;1570;-78
2022/03/30 01:12:10;;;;;;;;;;;;;;;;;;344319;28;1426;-78
2022/03/30 01:12:21;;;;;;;;;;;;;;;;;;344595;28;852;-78
2022/03/30 01:12:32;;;;;;;;;;;;;;;;;;344436;28;1981;-78
2022/03/30 01:12:42;;;;;;;;;;;;;;;;;;344294;28;1620;-78
2022/03/30 01:12:54;;;;;;;;;;;;;;;;;;344589;28;929;-78
2022/03/30 01:13:07;;;;;;;;;;;;;;;;;;344614;28;874;-78
2022/03/30 01:13:17;;;;;;;;;;;;;;;;;;344559;28;867;-78
2022/03/30 01:13:28;;;;;;;;;;;;;;;;;;344481;28;985;-78
2022/03/30 01:13:39;;;;;;;;;;;;;;;;;;344597;28;814;-78
2022/03/30 01:13:50;;;;;;;;;;;;;;;;;;344385;28;1998;-78
2022/03/30 01:14:00;;;;;;;;;;;;;;;;;;344483;28;1869;-78
2022/03/30 01:14:11;;;;;;;;;;;;;;;;;;344531;28;969;-78
2022/03/30 01:14:22;;;;;;;;;;;;;;;;;;344598;28;925;-78
2022/03/30 01:14:33;;;;;;;;;;;;;;;;;;344475;28;989;-78
2022/03/30 01:14:43;;;;;;;;;;;;;;;;;;344546;28;1055;-78
2022/03/30 01:14:54;;;;;;;;;;;;;;;;;;344410;28;1153;-78
2022/03/30 01:15:04;;;;;;;;;;;;;;;;;;344596;28;786;-78
2022/03/30 01:15:15;;;;;;;;;;;;;;;;;;344534;28;1016;-78
2022/03/30 01:15:25;;;;;;;;;;;;;;;;;;344630;28;779;-78
2022/03/30 01:15:36;;;;;;;;;;;;;;;;;;344576;28;880;-78
2022/03/30 01:15:46;;;;;;;;;;;;;;;;;;344530;28;838;-78
2022/03/30 01:15:58;;;;;;;;;;;;;;;;;;344548;28;977;-78
2022/03/30 01:16:08;;;;;;;;;;;;;;;;;;344568;28;945;-78
2022/03/30 01:16:25;;;;;;;;;;;;;;;;;;344581;28;917;-78
2022/03/30 01:16:35;;;;;;;;;;;;;;;;;;344528;28;957;-78
2022/03/30 01:16:46;;;;;;;;;;;;;;;;;;344549;28;981;-78
2022/03/30 01:16:56;;;;;;;;;;;;;;;;;;344574;28;922;-78
2022/03/30 01:17:06;;;;;;;;;;;;;;;;;;344307;28;1580;-78
2022/03/30 01:17:16;;;;;;;;;;;;;;;;;;344541;28;1005;-78
2022/03/30 01:17:27;;;;;;;;;;;;;;;;;;344578;28;980;-78
2022/03/30 01:17:37;;;;;;;;;;;;;;;;;;344555;28;933;-78
2022/03/30 01:17:47;;;;;;;;;;;;;;;;;;344552;28;911;-78
2022/03/30 01:17:58;;;;;;;;;;;;;;;;;;344612;28;862;-77
2022/03/30 01:18:08;;;;;;;;;;;;;;;;;;344558;28;1044;-78
2022/03/30 01:18:18;;;;;;;;;;;;;;;;;;344549;28;911;-78
2022/03/30 01:18:29;;;;;;;;;;;;;;;;;;344581;28;914;-78
2022/03/30 01:18:40;;;;;;;;;;;;;;;;;;344497;28;871;-78
2022/03/30 01:19:00;;;;;;;;;;;;;;;;;;344516;28;866;-78
2022/03/30 01:19:11;;;;;;;;;;;;;;;;;;344593;28;972;-78